sensor_id;sensor_type;location;lat;lon;timestamp;P1;durP1;ratioP1;P2;durP2;ratioP2
75459;SDS011;64039;53.060;9.342;2023-07-16T00:02:03;3.67;;;1.70;;
75459;SDS011;64039;53.060;9.342;2023-07-16T00:04:30;4.80;;;1.80;;
75459;SDS011;64039;53.060;9.342;2023-07-16T00:06:56;3.30;;;1.77;;
75459;SDS011;64039;53.060;9.342;2023-07-16T00:09:21;3.20;;;1.60;;
75459;SDS011;64039;53.060;9.342;2023-07-16T00:11:47;3.78;;;1.55;;
75459;SDS011;64039;53.060;9.342;2023-07-16T00:14:12;3.65;;;1.70;;
75459;SDS011;64039;53.060;9.342;2023-07-16T00:16:38;3.75;;;1.42;;
75459;SDS011;64039;53.060;9.342;2023-07-16T00:19:03;3.22;;;1.80;;
75459;SDS011;64039;53.060;9.342;2023-07-16T00:21:29;2.28;;;1.40;;
75459;SDS011;64039;53.060;9.342;2023-07-16T00:23:54;2.45;;;1.70;;
75459;SDS011;64039;53.060;9.342;2023-07-16T00:26:21;4.15;;;1.60;;
75459;SDS011;64039;53.060;9.342;2023-07-16T00:28:46;3.88;;;1.42;;
75459;SDS011;64039;53.060;9.342;2023-07-16T00:31:12;3.00;;;1.73;;
75459;SDS011;64039;53.060;9.342;2023-07-16T00:33:37;2.80;;;1.40;;
75459;SDS011;64039;53.060;9.342;2023-07-16T00:36:02;3.53;;;1.42;;
75459;SDS011;64039;53.060;9.342;2023-07-16T00:38:28;5.50;;;1.38;;
75459;SDS011;64039;53.060;9.342;2023-07-16T00:40:53;3.50;;;1.50;;
75459;SDS011;64039;53.060;9.342;2023-07-16T00:43:19;4.10;;;1.40;;
75459;SDS011;64039;53.060;9.342;2023-07-16T00:45:45;3.97;;;1.70;;
75459;SDS011;64039;53.060;9.342;2023-07-16T00:48:11;4.68;;;1.70;;
75459;SDS011;64039;53.060;9.342;2023-07-16T00:50:38;5.30;;;1.75;;
75459;SDS011;64039;53.060;9.342;2023-07-16T00:53:06;4.15;;;1.63;;
75459;SDS011;64039;53.060;9.342;2023-07-16T00:55:33;4.63;;;1.83;;
75459;SDS011;64039;53.060;9.342;2023-07-16T00:58:01;3.05;;;1.63;;
75459;SDS011;64039;53.060;9.342;2023-07-16T01:00:31;3.92;;;1.60;;
75459;SDS011;64039;53.060;9.342;2023-07-16T01:02:57;5.45;;;1.60;;
75459;SDS011;64039;53.060;9.342;2023-07-16T01:05:22;3.05;;;1.48;;
75459;SDS011;64039;53.060;9.342;2023-07-16T01:07:53;5.47;;;1.60;;
75459;SDS011;64039;53.060;9.342;2023-07-16T01:10:22;4.68;;;2.03;;
75459;SDS011;64039;53.060;9.342;2023-07-16T01:12:51;4.65;;;2.00;;
75459;SDS011;64039;53.060;9.342;2023-07-16T01:15:19;4.00;;;1.83;;
75459;SDS011;64039;53.060;9.342;2023-07-16T01:17:45;5.32;;;1.40;;
75459;SDS011;64039;53.060;9.342;2023-07-16T01:20:11;3.90;;;1.60;;
75459;SDS011;64039;53.060;9.342;2023-07-16T01:27:58;3.47;;;1.80;;
75459;SDS011;64039;53.060;9.342;2023-07-16T01:30:32;3.60;;;1.60;;
75459;SDS011;64039;53.060;9.342;2023-07-16T01:32:58;5.82;;;1.83;;
75459;SDS011;64039;53.060;9.342;2023-07-16T01:35:26;4.60;;;1.50;;
75459;SDS011;64039;53.060;9.342;2023-07-16T01:37:52;3.17;;;1.55;;
75459;SDS011;64039;53.060;9.342;2023-07-16T01:40:17;6.95;;;1.85;;
75459;SDS011;64039;53.060;9.342;2023-07-16T01:42:43;3.47;;;1.73;;
75459;SDS011;64039;53.060;9.342;2023-07-16T01:45:08;3.72;;;1.67;;
75459;SDS011;64039;53.060;9.342;2023-07-16T01:50:08;4.70;;;1.60;;
75459;SDS011;64039;53.060;9.342;2023-07-16T01:52:34;3.63;;;1.50;;
75459;SDS011;64039;53.060;9.342;2023-07-16T01:55:00;5.82;;;2.00;;
75459;SDS011;64039;53.060;9.342;2023-07-16T01:57:25;6.47;;;1.80;;
75459;SDS011;64039;53.060;9.342;2023-07-16T01:59:51;4.80;;;1.95;;
75459;SDS011;64039;53.060;9.342;2023-07-16T02:02:16;2.97;;;1.60;;
75459;SDS011;64039;53.060;9.342;2023-07-16T02:04:42;7.90;;;1.80;;
75459;SDS011;64039;53.060;9.342;2023-07-16T02:07:07;7.10;;;1.95;;
75459;SDS011;64039;53.060;9.342;2023-07-16T02:09:33;4.72;;;2.25;;
75459;SDS011;64039;53.060;9.342;2023-07-16T02:12:00;2.92;;;1.60;;
75459;SDS011;64039;53.060;9.342;2023-07-16T02:14:25;6.47;;;1.98;;
75459;SDS011;64039;53.060;9.342;2023-07-16T02:16:51;4.75;;;1.77;;
75459;SDS011;64039;53.060;9.342;2023-07-16T02:19:16;4.80;;;1.70;;
75459;SDS011;64039;53.060;9.342;2023-07-16T02:21:42;2.80;;;1.70;;
75459;SDS011;64039;53.060;9.342;2023-07-16T02:24:07;2.78;;;1.60;;
75459;SDS011;64039;53.060;9.342;2023-07-16T02:26:33;4.80;;;1.90;;
75459;SDS011;64039;53.060;9.342;2023-07-16T02:28:59;5.15;;;1.77;;
75459;SDS011;64039;53.060;9.342;2023-07-16T02:31:24;7.75;;;1.80;;
75459;SDS011;64039;53.060;9.342;2023-07-16T02:33:50;4.68;;;1.88;;
75459;SDS011;64039;53.060;9.342;2023-07-16T02:36:15;3.83;;;1.63;;
75459;SDS011;64039;53.060;9.342;2023-07-16T02:38:41;5.43;;;1.70;;
75459;SDS011;64039;53.060;9.342;2023-07-16T02:41:07;5.13;;;1.55;;
75459;SDS011;64039;53.060;9.342;2023-07-16T02:43:32;3.78;;;1.60;;
75459;SDS011;64039;53.060;9.342;2023-07-16T02:45:58;4.63;;;1.80;;
75459;SDS011;64039;53.060;9.342;2023-07-16T02:48:23;5.18;;;1.40;;
75459;SDS011;64039;53.060;9.342;2023-07-16T02:50:49;2.67;;;1.77;;
75459;SDS011;64039;53.060;9.342;2023-07-16T02:53:15;3.47;;;2.05;;
75459;SDS011;64039;53.060;9.342;2023-07-16T02:55:40;4.57;;;1.80;;
75459;SDS011;64039;53.060;9.342;2023-07-16T02:58:06;3.45;;;1.65;;
75459;SDS011;64039;53.060;9.342;2023-07-16T03:00:31;4.25;;;1.65;;
75459;SDS011;64039;53.060;9.342;2023-07-16T03:02:57;4.20;;;1.70;;
75459;SDS011;64039;53.060;9.342;2023-07-16T03:05:26;6.88;;;2.15;;
75459;SDS011;64039;53.060;9.342;2023-07-16T03:07:52;4.80;;;1.88;;
75459;SDS011;64039;53.060;9.342;2023-07-16T03:10:18;3.70;;;1.70;;
75459;SDS011;64039;53.060;9.342;2023-07-16T03:12:45;4.00;;;1.83;;
75459;SDS011;64039;53.060;9.342;2023-07-16T03:15:10;6.95;;;1.88;;
75459;SDS011;64039;53.060;9.342;2023-07-16T03:17:36;4.75;;;1.80;;
75459;SDS011;64039;53.060;9.342;2023-07-16T03:20:02;4.05;;;1.50;;
75459;SDS011;64039;53.060;9.342;2023-07-16T03:22:30;5.20;;;1.80;;
75459;SDS011;64039;53.060;9.342;2023-07-16T03:24:55;4.90;;;1.70;;
75459;SDS011;64039;53.060;9.342;2023-07-16T03:27:21;3.85;;;1.55;;
75459;SDS011;64039;53.060;9.342;2023-07-16T03:29:46;7.95;;;2.00;;
75459;SDS011;64039;53.060;9.342;2023-07-16T03:32:12;3.97;;;1.70;;
75459;SDS011;64039;53.060;9.342;2023-07-16T03:34:37;2.92;;;1.85;;
75459;SDS011;64039;53.060;9.342;2023-07-16T03:37:03;5.93;;;1.85;;
75459;SDS011;64039;53.060;9.342;2023-07-16T03:39:28;5.25;;;1.98;;
75459;SDS011;64039;53.060;9.342;2023-07-16T03:41:54;4.97;;;1.83;;
75459;SDS011;64039;53.060;9.342;2023-07-16T03:44:19;3.72;;;1.77;;
75459;SDS011;64039;53.060;9.342;2023-07-16T03:46:45;4.00;;;1.90;;
75459;SDS011;64039;53.060;9.342;2023-07-16T03:49:10;3.55;;;1.60;;
75459;SDS011;64039;53.060;9.342;2023-07-16T03:51:37;4.13;;;1.77;;
75459;SDS011;64039;53.060;9.342;2023-07-16T03:54:02;3.88;;;1.77;;
75459;SDS011;64039;53.060;9.342;2023-07-16T03:56:28;3.95;;;1.70;;
75459;SDS011;64039;53.060;9.342;2023-07-16T03:58:53;3.58;;;1.85;;
75459;SDS011;64039;53.060;9.342;2023-07-16T04:01:19;4.55;;;1.60;;
75459;SDS011;64039;53.060;9.342;2023-07-16T04:03:44;3.33;;;1.60;;
75459;SDS011;64039;53.060;9.342;2023-07-16T04:06:10;3.10;;;1.80;;
75459;SDS011;64039;53.060;9.342;2023-07-16T04:08:37;8.73;;;1.67;;
75459;SDS011;64039;53.060;9.342;2023-07-16T04:11:03;4.43;;;1.95;;
75459;SDS011;64039;53.060;9.342;2023-07-16T04:13:30;4.22;;;1.67;;
75459;SDS011;64039;53.060;9.342;2023-07-16T04:15:56;3.85;;;1.77;;
75459;SDS011;64039;53.060;9.342;2023-07-16T04:18:23;5.78;;;1.85;;
75459;SDS011;64039;53.060;9.342;2023-07-16T04:20:49;3.88;;;1.80;;
75459;SDS011;64039;53.060;9.342;2023-07-16T04:23:14;6.97;;;2.10;;
75459;SDS011;64039;53.060;9.342;2023-07-16T04:25:40;6.90;;;1.85;;
75459;SDS011;64039;53.060;9.342;2023-07-16T04:28:06;5.93;;;2.00;;
75459;SDS011;64039;53.060;9.342;2023-07-16T04:30:31;3.65;;;1.80;;
75459;SDS011;64039;53.060;9.342;2023-07-16T04:32:57;3.83;;;1.77;;
75459;SDS011;64039;53.060;9.342;2023-07-16T04:35:22;4.63;;;1.88;;
75459;SDS011;64039;53.060;9.342;2023-07-16T04:37:48;5.78;;;1.67;;
75459;SDS011;64039;53.060;9.342;2023-07-16T04:40:13;4.15;;;1.98;;
75459;SDS011;64039;53.060;9.342;2023-07-16T04:42:39;7.35;;;1.85;;
75459;SDS011;64039;53.060;9.342;2023-07-16T04:45:04;4.85;;;2.00;;
75459;SDS011;64039;53.060;9.342;2023-07-16T04:47:30;5.35;;;1.85;;
75459;SDS011;64039;53.060;9.342;2023-07-16T04:49:57;6.18;;;1.80;;
75459;SDS011;64039;53.060;9.342;2023-07-16T04:52:23;4.03;;;1.80;;
75459;SDS011;64039;53.060;9.342;2023-07-16T04:54:48;4.15;;;1.83;;
75459;SDS011;64039;53.060;9.342;2023-07-16T04:57:14;4.35;;;2.08;;
75459;SDS011;64039;53.060;9.342;2023-07-16T04:59:39;3.85;;;1.58;;
75459;SDS011;64039;53.060;9.342;2023-07-16T05:02:05;6.20;;;1.90;;
75459;SDS011;64039;53.060;9.342;2023-07-16T05:04:31;4.15;;;1.80;;
75459;SDS011;64039;53.060;9.342;2023-07-16T05:06:57;5.05;;;1.83;;
75459;SDS011;64039;53.060;9.342;2023-07-16T05:09:23;4.50;;;1.70;;
75459;SDS011;64039;53.060;9.342;2023-07-16T05:11:48;6.93;;;2.28;;
75459;SDS011;64039;53.060;9.342;2023-07-16T05:14:14;5.45;;;2.60;;
75459;SDS011;64039;53.060;9.342;2023-07-16T05:16:39;4.82;;;2.60;;
75459;SDS011;64039;53.060;9.342;2023-07-16T05:19:05;8.18;;;3.55;;
75459;SDS011;64039;53.060;9.342;2023-07-16T05:21:30;9.25;;;4.55;;
75459;SDS011;64039;53.060;9.342;2023-07-16T05:23:58;10.25;;;3.60;;
75459;SDS011;64039;53.060;9.342;2023-07-16T05:26:23;4.18;;;2.30;;
75459;SDS011;64039;53.060;9.342;2023-07-16T05:28:49;4.68;;;2.60;;
75459;SDS011;64039;53.060;9.342;2023-07-16T05:31:14;5.93;;;2.15;;
75459;SDS011;64039;53.060;9.342;2023-07-16T05:33:40;6.20;;;1.80;;
75459;SDS011;64039;53.060;9.342;2023-07-16T05:36:06;5.00;;;1.80;;
75459;SDS011;64039;53.060;9.342;2023-07-16T05:38:32;6.25;;;1.80;;
75459;SDS011;64039;53.060;9.342;2023-07-16T05:41:01;4.93;;;1.77;;
75459;SDS011;64039;53.060;9.342;2023-07-16T05:43:27;4.13;;;1.80;;
75459;SDS011;64039;53.060;9.342;2023-07-16T05:45:53;3.95;;;1.90;;
75459;SDS011;64039;53.060;9.342;2023-07-16T05:48:18;3.55;;;1.80;;
75459;SDS011;64039;53.060;9.342;2023-07-16T05:50:44;4.93;;;1.70;;
75459;SDS011;64039;53.060;9.342;2023-07-16T05:53:10;2.90;;;1.67;;
75459;SDS011;64039;53.060;9.342;2023-07-16T05:55:36;5.97;;;1.80;;
75459;SDS011;64039;53.060;9.342;2023-07-16T05:58:01;4.43;;;1.70;;
75459;SDS011;64039;53.060;9.342;2023-07-16T06:00:27;4.75;;;1.83;;
75459;SDS011;64039;53.060;9.342;2023-07-16T06:02:52;6.10;;;1.80;;
75459;SDS011;64039;53.060;9.342;2023-07-16T06:05:18;5.35;;;1.70;;
75459;SDS011;64039;53.060;9.342;2023-07-16T06:07:43;6.45;;;2.20;;
75459;SDS011;64039;53.060;9.342;2023-07-16T06:10:09;8.73;;;2.00;;
75459;SDS011;64039;53.060;9.342;2023-07-16T06:12:34;5.35;;;1.83;;
75459;SDS011;64039;53.060;9.342;2023-07-16T06:15:00;5.60;;;1.67;;
75459;SDS011;64039;53.060;9.342;2023-07-16T06:17:26;5.30;;;1.90;;
75459;SDS011;64039;53.060;9.342;2023-07-16T06:19:51;8.13;;;2.50;;
75459;SDS011;64039;53.060;9.342;2023-07-16T06:22:17;6.35;;;2.20;;
75459;SDS011;64039;53.060;9.342;2023-07-16T06:24:42;6.47;;;2.72;;
75459;SDS011;64039;53.060;9.342;2023-07-16T06:27:08;5.68;;;2.15;;
75459;SDS011;64039;53.060;9.342;2023-07-16T06:29:33;6.82;;;2.00;;
75459;SDS011;64039;53.060;9.342;2023-07-16T06:31:59;8.43;;;2.17;;
75459;SDS011;64039;53.060;9.342;2023-07-16T06:34:25;9.77;;;2.10;;
75459;SDS011;64039;53.060;9.342;2023-07-16T06:36:51;9.32;;;2.30;;
75459;SDS011;64039;53.060;9.342;2023-07-16T06:39:16;7.43;;;2.38;;
75459;SDS011;64039;53.060;9.342;2023-07-16T06:41:42;6.78;;;2.33;;
75459;SDS011;64039;53.060;9.342;2023-07-16T06:44:08;6.95;;;2.28;;
75459;SDS011;64039;53.060;9.342;2023-07-16T06:46:33;4.82;;;2.00;;
75459;SDS011;64039;53.060;9.342;2023-07-16T06:48:59;5.20;;;2.40;;
75459;SDS011;64039;53.060;9.342;2023-07-16T06:51:24;7.47;;;2.20;;
75459;SDS011;64039;53.060;9.342;2023-07-16T06:53:49;6.55;;;2.67;;
75459;SDS011;64039;53.060;9.342;2023-07-16T06:56:15;5.53;;;2.60;;
75459;SDS011;64039;53.060;9.342;2023-07-16T06:58:41;6.13;;;1.90;;
75459;SDS011;64039;53.060;9.342;2023-07-16T07:01:06;7.05;;;3.30;;
75459;SDS011;64039;53.060;9.342;2023-07-16T07:03:32;6.60;;;1.75;;
75459;SDS011;64039;53.060;9.342;2023-07-16T07:06:03;3.40;;;1.90;;
75459;SDS011;64039;53.060;9.342;2023-07-16T07:08:29;7.80;;;2.05;;
75459;SDS011;64039;53.060;9.342;2023-07-16T07:10:54;5.68;;;2.72;;
75459;SDS011;64039;53.060;9.342;2023-07-16T07:13:20;5.82;;;3.03;;
75459;SDS011;64039;53.060;9.342;2023-07-16T07:15:45;5.70;;;2.47;;
75459;SDS011;64039;53.060;9.342;2023-07-16T07:18:11;5.15;;;2.13;;
75459;SDS011;64039;53.060;9.342;2023-07-16T07:20:36;4.85;;;2.15;;
75459;SDS011;64039;53.060;9.342;2023-07-16T07:23:02;7.28;;;2.30;;
75459;SDS011;64039;53.060;9.342;2023-07-16T07:25:30;9.57;;;3.38;;
75459;SDS011;64039;53.060;9.342;2023-07-16T07:27:55;7.95;;;2.67;;
75459;SDS011;64039;53.060;9.342;2023-07-16T07:30:21;8.55;;;2.90;;
75459;SDS011;64039;53.060;9.342;2023-07-16T07:32:46;6.40;;;2.50;;
75459;SDS011;64039;53.060;9.342;2023-07-16T07:35:12;7.63;;;2.65;;
75459;SDS011;64039;53.060;9.342;2023-07-16T07:37:37;4.85;;;2.17;;
75459;SDS011;64039;53.060;9.342;2023-07-16T07:40:03;4.88;;;2.40;;
75459;SDS011;64039;53.060;9.342;2023-07-16T07:42:29;3.63;;;2.70;;
75459;SDS011;64039;53.060;9.342;2023-07-16T07:44:55;9.88;;;2.90;;
75459;SDS011;64039;53.060;9.342;2023-07-16T07:47:20;5.95;;;2.85;;
75459;SDS011;64039;53.060;9.342;2023-07-16T07:49:46;8.48;;;2.40;;
75459;SDS011;64039;53.060;9.342;2023-07-16T07:52:12;7.43;;;2.60;;
75459;SDS011;64039;53.060;9.342;2023-07-16T07:54:37;7.80;;;2.65;;
75459;SDS011;64039;53.060;9.342;2023-07-16T07:57:06;6.25;;;2.60;;
75459;SDS011;64039;53.060;9.342;2023-07-16T07:59:31;5.60;;;2.45;;
75459;SDS011;64039;53.060;9.342;2023-07-16T08:01:57;7.85;;;2.95;;
75459;SDS011;64039;53.060;9.342;2023-07-16T08:04:23;7.20;;;3.08;;
75459;SDS011;64039;53.060;9.342;2023-07-16T08:06:50;6.30;;;3.25;;
75459;SDS011;64039;53.060;9.342;2023-07-16T08:09:16;6.97;;;3.40;;
75459;SDS011;64039;53.060;9.342;2023-07-16T08:11:41;5.82;;;3.42;;
75459;SDS011;64039;53.060;9.342;2023-07-16T08:14:07;6.53;;;3.05;;
75459;SDS011;64039;53.060;9.342;2023-07-16T08:16:32;7.05;;;3.08;;
75459;SDS011;64039;53.060;9.342;2023-07-16T08:18:57;8.63;;;3.47;;
75459;SDS011;64039;53.060;9.342;2023-07-16T08:21:23;10.98;;;6.18;;
75459;SDS011;64039;53.060;9.342;2023-07-16T08:23:49;5.57;;;3.20;;
75459;SDS011;64039;53.060;9.342;2023-07-16T08:26:14;9.07;;;3.13;;
75459;SDS011;64039;53.060;9.342;2023-07-16T08:28:40;11.13;;;3.17;;
75459;SDS011;64039;53.060;9.342;2023-07-16T08:31:05;9.60;;;3.53;;
75459;SDS011;64039;53.060;9.342;2023-07-16T08:33:31;8.00;;;3.30;;
75459;SDS011;64039;53.060;9.342;2023-07-16T08:35:56;6.25;;;3.28;;
75459;SDS011;64039;53.060;9.342;2023-07-16T08:38:22;8.32;;;3.70;;
75459;SDS011;64039;53.060;9.342;2023-07-16T08:40:47;6.65;;;3.58;;
75459;SDS011;64039;53.060;9.342;2023-07-16T08:43:16;6.63;;;3.25;;
75459;SDS011;64039;53.060;9.342;2023-07-16T08:45:41;8.50;;;3.53;;
75459;SDS011;64039;53.060;9.342;2023-07-16T08:48:10;9.05;;;3.30;;
75459;SDS011;64039;53.060;9.342;2023-07-16T08:50:36;7.22;;;3.75;;
75459;SDS011;64039;53.060;9.342;2023-07-16T08:53:04;11.45;;;3.95;;
75459;SDS011;64039;53.060;9.342;2023-07-16T08:55:30;8.68;;;4.93;;
75459;SDS011;64039;53.060;9.342;2023-07-16T08:57:55;6.35;;;3.67;;
75459;SDS011;64039;53.060;9.342;2023-07-16T09:00:22;8.98;;;3.53;;
75459;SDS011;64039;53.060;9.342;2023-07-16T09:02:51;8.88;;;3.75;;
75459;SDS011;64039;53.060;9.342;2023-07-16T09:05:19;6.95;;;3.78;;
75459;SDS011;64039;53.060;9.342;2023-07-16T09:07:45;8.45;;;2.90;;
75459;SDS011;64039;53.060;9.342;2023-07-16T09:10:11;12.73;;;4.78;;
75459;SDS011;64039;53.060;9.342;2023-07-16T09:12:41;7.05;;;3.10;;
75459;SDS011;64039;53.060;9.342;2023-07-16T09:15:07;7.25;;;3.35;;
75459;SDS011;64039;53.060;9.342;2023-07-16T09:17:33;9.38;;;3.25;;
75459;SDS011;64039;53.060;9.342;2023-07-16T09:20:02;10.05;;;3.65;;
75459;SDS011;64039;53.060;9.342;2023-07-16T09:22:27;6.90;;;3.20;;
75459;SDS011;64039;53.060;9.342;2023-07-16T09:24:54;6.80;;;3.58;;
75459;SDS011;64039;53.060;9.342;2023-07-16T09:27:27;8.10;;;3.20;;
75459;SDS011;64039;53.060;9.342;2023-07-16T09:29:53;8.85;;;3.45;;
75459;SDS011;64039;53.060;9.342;2023-07-16T09:32:19;7.47;;;3.53;;
75459;SDS011;64039;53.060;9.342;2023-07-16T09:34:45;10.55;;;3.10;;
75459;SDS011;64039;53.060;9.342;2023-07-16T09:37:14;6.90;;;3.20;;
75459;SDS011;64039;53.060;9.342;2023-07-16T09:39:39;6.40;;;3.10;;
75459;SDS011;64039;53.060;9.342;2023-07-16T09:42:06;7.95;;;3.55;;
75459;SDS011;64039;53.060;9.342;2023-07-16T09:44:32;5.40;;;2.58;;
75459;SDS011;64039;53.060;9.342;2023-07-16T09:46:59;5.85;;;3.03;;
75459;SDS011;64039;53.060;9.342;2023-07-16T09:49:27;6.60;;;3.10;;
75459;SDS011;64039;53.060;9.342;2023-07-16T09:51:55;7.90;;;3.22;;
75459;SDS011;64039;53.060;9.342;2023-07-16T09:54:22;10.25;;;3.22;;
75459;SDS011;64039;53.060;9.342;2023-07-16T09:56:51;4.68;;;2.80;;
75459;SDS011;64039;53.060;9.342;2023-07-16T09:59:23;5.68;;;3.00;;
75459;SDS011;64039;53.060;9.342;2023-07-16T10:01:54;8.00;;;2.80;;
75459;SDS011;64039;53.060;9.342;2023-07-16T10:04:20;5.60;;;2.83;;
75459;SDS011;64039;53.060;9.342;2023-07-16T10:06:49;6.65;;;2.60;;
75459;SDS011;64039;53.060;9.342;2023-07-16T10:09:36;7.38;;;2.90;;
75459;SDS011;64039;53.060;9.342;2023-07-16T10:14:54;10.02;;;3.05;;
75459;SDS011;64039;53.060;9.342;2023-07-16T10:17:26;7.45;;;3.40;;
75459;SDS011;64039;53.060;9.342;2023-07-16T10:20:05;6.70;;;2.60;;
75459;SDS011;64039;53.060;9.342;2023-07-16T10:27:45;4.45;;;2.90;;
75459;SDS011;64039;53.060;9.342;2023-07-16T10:30:13;6.18;;;3.53;;
75459;SDS011;64039;53.060;9.342;2023-07-16T10:32:39;6.80;;;2.85;;
75459;SDS011;64039;53.060;9.342;2023-07-16T10:35:05;6.97;;;3.08;;
75459;SDS011;64039;53.060;9.342;2023-07-16T10:37:34;7.20;;;2.88;;
75459;SDS011;64039;53.060;9.342;2023-07-16T10:40:00;6.82;;;3.25;;
75459;SDS011;64039;53.060;9.342;2023-07-16T10:42:28;6.95;;;3.38;;
75459;SDS011;64039;53.060;9.342;2023-07-16T10:44:57;5.32;;;2.83;;
75459;SDS011;64039;53.060;9.342;2023-07-16T10:47:29;8.95;;;2.85;;
75459;SDS011;64039;53.060;9.342;2023-07-16T10:49:55;7.15;;;2.85;;
75459;SDS011;64039;53.060;9.342;2023-07-16T10:52:21;8.65;;;2.72;;
75459;SDS011;64039;53.060;9.342;2023-07-16T10:54:49;7.72;;;2.70;;
75459;SDS011;64039;53.060;9.342;2023-07-16T10:57:23;7.95;;;2.55;;
75459;SDS011;64039;53.060;9.342;2023-07-16T10:59:52;7.07;;;2.33;;
75459;SDS011;64039;53.060;9.342;2023-07-16T11:02:20;6.40;;;2.58;;
75459;SDS011;64039;53.060;9.342;2023-07-16T11:04:47;5.13;;;2.05;;
75459;SDS011;64039;53.060;9.342;2023-07-16T11:07:14;4.72;;;2.20;;
75459;SDS011;64039;53.060;9.342;2023-07-16T11:09:41;5.55;;;2.30;;
75459;SDS011;64039;53.060;9.342;2023-07-16T11:12:17;5.95;;;2.20;;
75459;SDS011;64039;53.060;9.342;2023-07-16T11:14:47;6.07;;;2.35;;
75459;SDS011;64039;53.060;9.342;2023-07-16T11:17:14;5.70;;;2.53;;
75459;SDS011;64039;53.060;9.342;2023-07-16T11:19:45;4.13;;;1.73;;
75459;SDS011;64039;53.060;9.342;2023-07-16T11:22:14;6.38;;;2.35;;
75459;SDS011;64039;53.060;9.342;2023-07-16T11:24:44;3.80;;;2.10;;
75459;SDS011;64039;53.060;9.342;2023-07-16T11:27:15;7.45;;;2.25;;
75459;SDS011;64039;53.060;9.342;2023-07-16T11:29:47;4.90;;;2.17;;
75459;SDS011;64039;53.060;9.342;2023-07-16T11:35:23;5.35;;;2.17;;
75459;SDS011;64039;53.060;9.342;2023-07-16T11:37:49;3.83;;;1.98;;
75459;SDS011;64039;53.060;9.342;2023-07-16T11:40:15;3.60;;;2.15;;
75459;SDS011;64039;53.060;9.342;2023-07-16T11:42:42;7.57;;;2.10;;
75459;SDS011;64039;53.060;9.342;2023-07-16T11:45:18;5.05;;;2.13;;
75459;SDS011;64039;53.060;9.342;2023-07-16T11:47:52;5.22;;;2.08;;
75459;SDS011;64039;53.060;9.342;2023-07-16T11:50:19;6.55;;;2.13;;
75459;SDS011;64039;53.060;9.342;2023-07-16T11:53:02;4.03;;;2.20;;
75459;SDS011;64039;53.060;9.342;2023-07-16T11:55:28;5.40;;;2.10;;
75459;SDS011;64039;53.060;9.342;2023-07-16T11:57:54;7.18;;;2.70;;
75459;SDS011;64039;53.060;9.342;2023-07-16T12:00:22;3.90;;;2.00;;
75459;SDS011;64039;53.060;9.342;2023-07-16T12:02:48;3.75;;;2.05;;
75459;SDS011;64039;53.060;9.342;2023-07-16T12:05:19;5.53;;;1.92;;
75459;SDS011;64039;53.060;9.342;2023-07-16T12:07:45;7.20;;;2.40;;
75459;SDS011;64039;53.060;9.342;2023-07-16T12:10:11;4.82;;;1.98;;
75459;SDS011;64039;53.060;9.342;2023-07-16T12:12:37;3.90;;;2.40;;
75459;SDS011;64039;53.060;9.342;2023-07-16T12:15:03;5.30;;;2.15;;
75459;SDS011;64039;53.060;9.342;2023-07-16T12:17:29;8.40;;;2.15;;
75459;SDS011;64039;53.060;9.342;2023-07-16T12:19:55;4.25;;;2.15;;
75459;SDS011;64039;53.060;9.342;2023-07-16T12:22:20;4.55;;;2.28;;
75459;SDS011;64039;53.060;9.342;2023-07-16T12:24:46;5.55;;;2.25;;
75459;SDS011;64039;53.060;9.342;2023-07-16T12:27:12;7.60;;;2.45;;
75459;SDS011;64039;53.060;9.342;2023-07-16T12:29:38;5.07;;;1.92;;
75459;SDS011;64039;53.060;9.342;2023-07-16T12:32:04;7.72;;;2.35;;
75459;SDS011;64039;53.060;9.342;2023-07-16T12:34:30;2.90;;;1.98;;
75459;SDS011;64039;53.060;9.342;2023-07-16T12:36:55;5.63;;;2.30;;
75459;SDS011;64039;53.060;9.342;2023-07-16T12:39:21;4.88;;;2.33;;
75459;SDS011;64039;53.060;9.342;2023-07-16T12:41:47;4.28;;;2.10;;
75459;SDS011;64039;53.060;9.342;2023-07-16T12:44:12;4.07;;;2.05;;
75459;SDS011;64039;53.060;9.342;2023-07-16T12:46:37;4.72;;;1.90;;
75459;SDS011;64039;53.060;9.342;2023-07-16T12:49:03;3.47;;;1.90;;
75459;SDS011;64039;53.060;9.342;2023-07-16T12:51:28;5.97;;;2.28;;
75459;SDS011;64039;53.060;9.342;2023-07-16T12:53:54;4.13;;;2.00;;
75459;SDS011;64039;53.060;9.342;2023-07-16T12:56:19;8.38;;;2.17;;
75459;SDS011;64039;53.060;9.342;2023-07-16T12:58:45;5.25;;;2.05;;
75459;SDS011;64039;53.060;9.342;2023-07-16T13:01:10;3.13;;;1.83;;
75459;SDS011;64039;53.060;9.342;2023-07-16T13:03:36;5.20;;;1.90;;
75459;SDS011;64039;53.060;9.342;2023-07-16T13:06:01;4.80;;;2.08;;
75459;SDS011;64039;53.060;9.342;2023-07-16T13:08:29;4.40;;;2.10;;
75459;SDS011;64039;53.060;9.342;2023-07-16T13:10:54;4.63;;;2.10;;
75459;SDS011;64039;53.060;9.342;2023-07-16T13:13:20;5.18;;;2.08;;
75459;SDS011;64039;53.060;9.342;2023-07-16T13:15:45;4.00;;;2.10;;
75459;SDS011;64039;53.060;9.342;2023-07-16T13:18:11;6.60;;;2.25;;
75459;SDS011;64039;53.060;9.342;2023-07-16T13:20:37;3.83;;;1.77;;
75459;SDS011;64039;53.060;9.342;2023-07-16T13:23:03;4.47;;;2.00;;
75459;SDS011;64039;53.060;9.342;2023-07-16T13:25:29;6.13;;;2.20;;
75459;SDS011;64039;53.060;9.342;2023-07-16T13:27:55;4.97;;;1.80;;
75459;SDS011;64039;53.060;9.342;2023-07-16T13:30:21;5.10;;;1.95;;
75459;SDS011;64039;53.060;9.342;2023-07-16T13:32:46;4.85;;;2.13;;
75459;SDS011;64039;53.060;9.342;2023-07-16T13:35:13;3.65;;;1.88;;
75459;SDS011;64039;53.060;9.342;2023-07-16T13:37:42;5.50;;;2.20;;
75459;SDS011;64039;53.060;9.342;2023-07-16T13:40:07;3.88;;;2.00;;
75459;SDS011;64039;53.060;9.342;2023-07-16T13:42:33;2.92;;;2.00;;
75459;SDS011;64039;53.060;9.342;2023-07-16T13:44:59;4.43;;;2.33;;
75459;SDS011;64039;53.060;9.342;2023-07-16T13:47:24;4.90;;;2.25;;
75459;SDS011;64039;53.060;9.342;2023-07-16T13:49:50;4.63;;;2.70;;
75459;SDS011;64039;53.060;9.342;2023-07-16T13:52:16;4.70;;;1.88;;
75459;SDS011;64039;53.060;9.342;2023-07-16T13:54:41;5.65;;;2.20;;
75459;SDS011;64039;53.060;9.342;2023-07-16T13:57:07;4.65;;;2.30;;
75459;SDS011;64039;53.060;9.342;2023-07-16T13:59:33;5.65;;;2.15;;
75459;SDS011;64039;53.060;9.342;2023-07-16T14:01:59;7.78;;;2.40;;
75459;SDS011;64039;53.060;9.342;2023-07-16T14:04:26;5.18;;;2.50;;
75459;SDS011;64039;53.060;9.342;2023-07-16T14:06:52;5.13;;;2.30;;
75459;SDS011;64039;53.060;9.342;2023-07-16T14:09:18;6.40;;;2.50;;
75459;SDS011;64039;53.060;9.342;2023-07-16T14:11:44;4.15;;;2.30;;
75459;SDS011;64039;53.060;9.342;2023-07-16T14:14:12;6.88;;;2.78;;
75459;SDS011;64039;53.060;9.342;2023-07-16T14:16:41;6.53;;;2.42;;
75459;SDS011;64039;53.060;9.342;2023-07-16T14:19:06;5.45;;;2.40;;
75459;SDS011;64039;53.060;9.342;2023-07-16T14:21:32;5.05;;;2.30;;
75459;SDS011;64039;53.060;9.342;2023-07-16T14:23:57;5.00;;;2.50;;
75459;SDS011;64039;53.060;9.342;2023-07-16T14:26:23;5.82;;;2.40;;
75459;SDS011;64039;53.060;9.342;2023-07-16T14:28:48;4.50;;;2.75;;
75459;SDS011;64039;53.060;9.342;2023-07-16T14:31:14;5.90;;;2.28;;
75459;SDS011;64039;53.060;9.342;2023-07-16T14:33:39;5.15;;;2.40;;
75459;SDS011;64039;53.060;9.342;2023-07-16T14:36:05;4.35;;;2.13;;
75459;SDS011;64039;53.060;9.342;2023-07-16T14:38:30;4.40;;;2.40;;
75459;SDS011;64039;53.060;9.342;2023-07-16T14:40:56;6.72;;;3.40;;
75459;SDS011;64039;53.060;9.342;2023-07-16T14:43:21;5.63;;;3.25;;
75459;SDS011;64039;53.060;9.342;2023-07-16T14:45:47;6.63;;;2.03;;
75459;SDS011;64039;53.060;9.342;2023-07-16T14:48:12;4.65;;;2.40;;
75459;SDS011;64039;53.060;9.342;2023-07-16T14:50:38;5.78;;;3.10;;
75459;SDS011;64039;53.060;9.342;2023-07-16T14:53:04;4.35;;;2.28;;
75459;SDS011;64039;53.060;9.342;2023-07-16T14:55:30;4.78;;;2.20;;
75459;SDS011;64039;53.060;9.342;2023-07-16T14:57:56;3.95;;;2.15;;
75459;SDS011;64039;53.060;9.342;2023-07-16T15:00:22;6.95;;;2.30;;
75459;SDS011;64039;53.060;9.342;2023-07-16T15:02:48;4.60;;;2.50;;